createdAt,value
2023-11-09T00:00:38.734Z,14.60
2023-11-09T00:03:07.074Z,14.58
2023-11-09T00:05:34.334Z,14.59
2023-11-09T00:08:01.621Z,14.58
2023-11-09T00:10:28.610Z,14.47
2023-11-09T00:12:59.656Z,14.47
2023-11-09T00:15:27.772Z,14.48
2023-11-09T00:17:55.053Z,14.47
2023-11-09T00:20:22.962Z,14.46
2023-11-09T00:25:19.662Z,14.43
2023-11-09T00:27:46.634Z,14.50
2023-11-09T00:30:13.790Z,14.39
2023-11-09T00:32:40.677Z,14.48
2023-11-09T00:35:09.890Z,14.48
2023-11-09T00:37:38.712Z,14.53
2023-11-09T00:40:12.643Z,14.46
2023-11-09T00:42:40.112Z,14.50
2023-11-09T00:45:08.221Z,14.46
2023-11-09T00:47:35.828Z,14.31
2023-11-09T00:50:02.775Z,14.36
2023-11-09T00:52:29.883Z,14.28
2023-11-09T00:54:56.987Z,14.28
2023-11-09T00:57:26.808Z,14.19
2023-11-09T00:59:53.660Z,14.23
2023-11-09T01:02:20.454Z,14.22
2023-11-09T01:04:47.382Z,14.11
2023-11-09T01:07:14.306Z,14.13
2023-11-09T01:09:41.316Z,14.08
2023-11-09T01:12:09.188Z,14.03
2023-11-09T01:14:36.138Z,14.13
2023-11-09T01:17:03.077Z,14.10
2023-11-09T01:19:30.108Z,14.02
2023-11-09T01:21:57.227Z,14.11
2023-11-09T01:24:24.107Z,14.16
2023-11-09T01:26:50.995Z,14.18
2023-11-09T01:29:19.984Z,14.13
2023-11-09T01:31:46.858Z,14.14
2023-11-09T01:34:15.605Z,14.07
2023-11-09T01:36:43.692Z,14.09
2023-11-09T01:39:14.024Z,14.11
2023-11-09T01:41:43.628Z,14.06
2023-11-09T01:44:11.189Z,14.02
2023-11-09T01:46:43.019Z,14.01
2023-11-09T01:49:11.938Z,13.95
2023-11-09T01:51:40.368Z,13.88
2023-11-09T01:54:08.639Z,13.81
2023-11-09T01:56:36.718Z,13.85
2023-11-09T01:59:06.960Z,13.95
2023-11-09T02:01:35.207Z,13.97
2023-11-09T02:04:03.104Z,13.94
2023-11-09T02:06:30.920Z,14.00
2023-11-09T02:08:59.568Z,13.78
2023-11-09T02:11:26.807Z,13.74
2023-11-09T02:13:54.257Z,13.71
2023-11-09T02:16:21.634Z,13.61
2023-11-09T02:18:48.918Z,13.56
2023-11-09T02:21:18.787Z,13.65
2023-11-09T02:23:49.428Z,13.55
2023-11-09T02:26:17.372Z,13.53
2023-11-09T02:28:50.469Z,13.52
2023-11-09T02:31:18.957Z,13.55
2023-11-09T02:33:45.908Z,13.57
2023-11-09T02:36:12.928Z,13.59
2023-11-09T02:38:39.808Z,13.71
2023-11-09T02:41:09.344Z,13.71
2023-11-09T02:43:41.492Z,13.84
2023-11-09T02:46:11.577Z,13.86
2023-11-09T02:48:39.448Z,13.92
2023-11-09T02:51:10.399Z,13.95
2023-11-09T02:53:38.563Z,14.00
2023-11-09T02:56:09.208Z,13.96
2023-11-09T02:58:36.171Z,14.01
2023-11-09T03:01:03.117Z,14.06
2023-11-09T03:03:30.258Z,14.11
2023-11-09T03:05:58.505Z,14.05
2023-11-09T03:08:28.006Z,14.11
2023-11-09T03:10:55.251Z,14.12
2023-11-09T03:13:22.951Z,14.12
2023-11-09T03:15:50.866Z,14.19
2023-11-09T03:18:18.639Z,14.19
2023-11-09T03:20:45.554Z,14.23
2023-11-09T03:23:13.146Z,14.23
2023-11-09T03:25:39.940Z,14.26
2023-11-09T03:28:06.866Z,14.29
2023-11-09T03:30:35.261Z,14.35
2023-11-09T03:33:02.577Z,14.25
2023-11-09T03:35:29.402Z,14.26
2023-11-09T03:37:56.207Z,14.28
2023-11-09T03:40:23.189Z,14.33
2023-11-09T03:42:49.984Z,14.38
2023-11-09T03:45:16.909Z,14.39
2023-11-09T03:47:44.427Z,14.30
2023-11-09T03:50:14.371Z,14.37
2023-11-09T03:52:41.417Z,14.29
2023-11-09T03:55:09.231Z,14.26
2023-11-09T03:57:37.100Z,14.31
2023-11-09T04:00:09.633Z,14.35
2023-11-09T04:02:40.449Z,14.42
2023-11-09T04:05:10.925Z,14.44
2023-11-09T04:07:45.891Z,14.33
2023-11-09T04:10:15.482Z,14.35
2023-11-09T04:12:43.729Z,14.39
2023-11-09T04:15:10.790Z,14.45
2023-11-09T04:17:38.020Z,14.43
2023-11-09T04:20:08.067Z,14.47
2023-11-09T04:22:35.576Z,14.36
2023-11-09T04:25:03.308Z,14.47
2023-11-09T04:27:30.552Z,14.48
2023-11-09T04:29:59.421Z,14.49
2023-11-09T04:32:27.222Z,14.53
2023-11-09T04:34:54.558Z,14.56
2023-11-09T04:37:23.247Z,14.50
2023-11-09T04:39:53.274Z,14.44
2023-11-09T04:42:20.938Z,14.46
2023-11-09T04:44:48.114Z,14.43
2023-11-09T04:47:15.990Z,14.39
2023-11-09T04:49:51.170Z,14.43
2023-11-09T04:52:20.643Z,14.41
2023-11-09T04:54:57.952Z,14.41
2023-11-09T04:57:49.389Z,14.34
2023-11-09T05:00:35.085Z,14.31
2023-11-09T05:03:20.416Z,14.29
2023-11-09T05:06:10.113Z,14.28
2023-11-09T05:08:37.321Z,14.27
2023-11-09T05:11:04.898Z,14.24
2023-11-09T05:13:31.892Z,14.27
2023-11-09T05:15:58.860Z,14.28
2023-11-09T05:18:26.228Z,14.28
2023-11-09T05:20:53.510Z,14.27
2023-11-09T05:23:20.396Z,14.34
2023-11-09T05:25:47.246Z,14.27
2023-11-09T05:28:14.110Z,14.27
2023-11-09T05:30:40.892Z,14.24
2023-11-09T05:33:07.679Z,14.14
2023-11-09T05:35:35.029Z,14.08
2023-11-09T05:38:01.968Z,14.20
2023-11-09T05:40:28.767Z,14.09
2023-11-09T05:42:55.601Z,14.07
2023-11-09T05:45:22.445Z,13.94
2023-11-09T05:47:50.010Z,14.01
2023-11-09T05:50:16.852Z,14.08
2023-11-09T05:52:43.790Z,14.11
2023-11-09T05:55:11.652Z,14.16
2023-11-09T05:57:38.649Z,14.19
2023-11-09T06:00:07.114Z,14.14
2023-11-09T06:02:33.996Z,14.11
2023-11-09T06:05:00.924Z,14.03
2023-11-09T06:07:29.013Z,14.01
2023-11-09T06:09:55.886Z,13.98
2023-11-09T06:12:23.060Z,13.88
2023-11-09T06:14:50.668Z,13.90
2023-11-09T06:17:17.510Z,13.96
2023-11-09T06:19:44.393Z,14.04
2023-11-09T06:22:11.265Z,14.07
2023-11-09T06:24:38.958Z,14.09
2023-11-09T06:27:08.250Z,14.08
2023-11-09T06:29:35.241Z,14.11
2023-11-09T06:32:02.128Z,14.18
2023-11-09T06:34:28.985Z,14.23
2023-11-09T06:36:56.907Z,14.31
2023-11-09T06:39:24.095Z,14.30
2023-11-09T06:41:51.070Z,14.25
2023-11-09T06:44:18.830Z,14.28
2023-11-09T06:46:46.006Z,14.22
2023-11-09T06:49:13.312Z,14.22
2023-11-09T06:51:40.250Z,14.28
2023-11-09T06:54:07.318Z,14.32
2023-11-09T06:56:35.765Z,14.36
2023-11-09T06:59:04.490Z,14.39
2023-11-09T07:01:36.476Z,14.43
2023-11-09T07:04:03.734Z,14.60
2023-11-09T07:06:30.591Z,14.62
2023-11-09T07:08:57.424Z,14.72
2023-11-09T07:11:24.354Z,14.74
2023-11-09T07:13:51.211Z,14.68
2023-11-09T07:16:18.090Z,14.67
2023-11-09T07:18:46.555Z,14.69
2023-11-09T07:21:13.508Z,14.71
2023-11-09T07:23:40.556Z,14.73
2023-11-09T07:26:07.666Z,14.70
2023-11-09T07:28:34.527Z,14.54
2023-11-09T07:31:02.392Z,14.57
2023-11-09T07:33:29.522Z,14.53
2023-11-09T07:35:57.735Z,14.56
2023-11-09T07:38:24.693Z,14.57
2023-11-09T07:40:51.489Z,14.60
2023-11-09T07:43:19.511Z,14.63
2023-11-09T07:45:47.003Z,14.66
2023-11-09T07:48:16.739Z,14.67
2023-11-09T07:50:43.646Z,14.69
2023-11-09T07:53:10.487Z,14.68
2023-11-09T07:55:38.129Z,14.72
2023-11-09T07:58:05.714Z,14.75
2023-11-09T08:00:32.643Z,14.77
2023-11-09T08:02:59.605Z,14.78
2023-11-09T08:05:26.630Z,14.83
2023-11-09T08:07:54.707Z,14.86
2023-11-09T08:10:22.986Z,14.88
2023-11-09T08:12:49.998Z,14.91
2023-11-09T08:15:19.708Z,14.98
2023-11-09T08:17:48.895Z,14.96
2023-11-09T08:20:16.861Z,15.04
2023-11-09T08:22:46.436Z,15.07
2023-11-09T08:25:15.619Z,15.06
2023-11-09T08:27:43.085Z,15.12
2023-11-09T08:30:11.253Z,15.12
2023-11-09T08:32:39.327Z,15.13
2023-11-09T08:35:11.246Z,15.11
2023-11-09T08:37:40.169Z,15.23
2023-11-09T08:40:18.122Z,15.20
2023-11-09T08:42:49.279Z,15.36
2023-11-09T08:45:19.117Z,15.37
2023-11-09T08:47:46.914Z,15.37
2023-11-09T08:50:14.493Z,15.35
2023-11-09T08:52:42.150Z,15.36
2023-11-09T08:55:10.285Z,15.35
2023-11-09T08:57:38.455Z,15.40
2023-11-09T09:00:13.074Z,15.47
2023-11-09T09:02:50.518Z,15.53
2023-11-09T09:05:19.751Z,15.68
2023-11-09T09:07:48.334Z,15.76
2023-11-09T09:10:17.499Z,15.79
2023-11-09T09:12:45.411Z,15.82
2023-11-09T09:15:20.428Z,15.83
2023-11-09T09:17:51.138Z,15.95
2023-11-09T09:20:21.445Z,15.97
2023-11-09T09:22:51.375Z,16.05
2023-11-09T09:25:18.206Z,16.14
2023-11-09T09:27:49.833Z,16.20
2023-11-09T09:30:19.976Z,16.20
2023-11-09T09:32:48.450Z,16.26
2023-11-09T09:35:16.700Z,16.24
2023-11-09T09:37:47.352Z,16.20
2023-11-09T09:40:16.620Z,16.30
2023-11-09T09:42:47.303Z,16.32
2023-11-09T09:45:17.780Z,16.24
2023-11-09T09:47:49.963Z,16.27
2023-11-09T09:50:25.211Z,16.44
2023-11-09T09:52:54.071Z,16.46
2023-11-09T09:55:22.368Z,16.60
2023-11-09T09:57:49.456Z,16.71
2023-11-09T10:00:31.722Z,16.89
2023-11-09T10:03:00.781Z,17.13
2023-11-09T10:05:30.611Z,17.24
2023-11-09T10:08:05.912Z,17.39
2023-11-09T10:10:35.609Z,17.36
2023-11-09T10:13:21.186Z,17.36
2023-11-09T10:15:56.465Z,17.32
2023-11-09T10:18:33.471Z,17.31
2023-11-09T10:21:04.831Z,17.29
2023-11-09T10:23:32.066Z,17.32
2023-11-09T10:26:03.716Z,17.34
2023-11-09T10:28:30.793Z,17.39
2023-11-09T10:30:57.653Z,17.42
2023-11-09T10:33:25.273Z,17.42
2023-11-09T10:35:53.955Z,17.43
2023-11-09T10:38:21.898Z,17.45
2023-11-09T10:41:14.240Z,17.47
2023-11-09T10:43:39.447Z,17.48
2023-11-09T10:46:10.650Z,17.51
2023-11-09T10:48:42.472Z,17.51
2023-11-09T10:51:11.059Z,17.50
2023-11-09T10:53:39.248Z,17.52
2023-11-09T10:56:11.909Z,17.51
2023-11-09T10:58:42.203Z,17.53
2023-11-09T11:01:12.754Z,17.52
2023-11-09T11:03:46.816Z,17.55
2023-11-09T11:06:18.728Z,17.50
2023-11-09T11:08:52.579Z,17.49
2023-11-09T11:11:27.474Z,17.47
2023-11-09T11:13:59.527Z,17.52
2023-11-09T11:16:45.445Z,17.60
2023-11-09T11:19:49.071Z,17.60
2023-11-09T11:22:29.304Z,17.64
2023-11-09T11:25:08.021Z,17.72
2023-11-09T11:27:47.401Z,17.69
2023-11-09T11:30:14.732Z,17.72
2023-11-09T11:32:41.559Z,17.67
2023-11-09T11:35:12.222Z,17.76
2023-11-09T11:37:39.044Z,17.76
2023-11-09T11:40:10.029Z,17.85
2023-11-09T11:42:39.421Z,17.85
2023-11-09T11:45:08.938Z,17.86
2023-11-09T11:47:36.103Z,17.88
2023-11-09T11:50:11.382Z,17.85
2023-11-09T11:52:39.129Z,17.78
2023-11-09T11:55:11.851Z,17.80
2023-11-09T11:58:08.386Z,17.81
2023-11-09T12:00:43.207Z,17.75
2023-11-09T12:03:11.667Z,17.69
2023-11-09T12:05:41.813Z,17.75
2023-11-09T12:08:15.427Z,17.69
2023-11-09T12:10:45.788Z,17.81
2023-11-09T12:13:16.097Z,17.83
2023-11-09T12:15:44.737Z,17.87
2023-11-09T12:18:11.807Z,17.97
2023-11-09T12:20:39.784Z,18.08
2023-11-09T12:23:11.827Z,18.34
2023-11-09T12:25:50.680Z,18.54
2023-11-09T12:28:17.684Z,18.66
2023-11-09T12:30:48.940Z,18.83
2023-11-09T12:33:17.748Z,18.96
2023-11-09T12:36:02.482Z,19.07
2023-11-09T12:38:30.072Z,19.13
2023-11-09T12:40:58.376Z,18.79
2023-11-09T12:43:40.532Z,18.69
2023-11-09T12:46:20.674Z,18.65
2023-11-09T12:48:53.505Z,18.43
2023-11-09T12:51:25.635Z,18.32
2023-11-09T12:53:54.080Z,18.21
2023-11-09T12:56:30.332Z,18.15
2023-11-09T12:59:05.133Z,18.17
2023-11-09T13:01:32.818Z,18.11
2023-11-09T13:04:00.437Z,18.14
2023-11-09T13:06:27.809Z,17.97
2023-11-09T13:09:06.179Z,17.78
2023-11-09T13:11:43.576Z,17.65
2023-11-09T13:14:17.641Z,17.64
2023-11-09T13:16:45.998Z,17.67
2023-11-09T13:19:27.473Z,17.67
2023-11-09T13:21:54.524Z,17.68
2023-11-09T13:24:27.784Z,17.72
2023-11-09T13:26:55.082Z,17.88
2023-11-09T13:29:24.088Z,17.92
2023-11-09T13:31:57.505Z,18.04
2023-11-09T13:34:37.621Z,18.12
2023-11-09T13:37:05.968Z,18.04
2023-11-09T13:39:52.300Z,18.21
2023-11-09T13:42:35.801Z,18.20
2023-11-09T13:45:08.461Z,18.23
2023-11-09T13:47:36.003Z,18.20
2023-11-09T13:50:05.512Z,18.31
2023-11-09T13:52:46.969Z,18.29
2023-11-09T13:55:33.891Z,18.27
2023-11-09T13:58:00.999Z,18.25
2023-11-09T14:00:37.744Z,18.31
2023-11-09T14:03:06.670Z,18.33
2023-11-09T14:05:33.698Z,18.36
2023-11-09T14:08:04.075Z,18.47
2023-11-09T14:10:30.922Z,18.54
2023-11-09T14:13:10.471Z,18.65
2023-11-09T14:15:50.336Z,18.72
2023-11-09T14:18:26.933Z,18.79
2023-11-09T14:21:16.383Z,18.77
2023-11-09T14:23:43.201Z,18.83
2023-11-09T14:26:10.438Z,18.90
2023-11-09T14:28:37.288Z,18.85
2023-11-09T14:31:09.140Z,18.89
2023-11-09T14:33:37.245Z,18.94
2023-11-09T14:36:07.403Z,18.94
2023-11-09T14:38:34.399Z,18.98
2023-11-09T14:41:01.470Z,18.92
2023-11-09T14:43:30.865Z,18.87
2023-11-09T14:46:06.225Z,18.90
2023-11-09T14:48:36.515Z,18.87
2023-11-09T14:51:04.200Z,18.81
2023-11-09T14:53:36.819Z,18.71
2023-11-09T14:56:07.568Z,18.75
2023-11-09T14:58:35.704Z,18.60
2023-11-09T15:01:04.655Z,18.54
2023-11-09T15:03:35.989Z,18.49
2023-11-09T15:06:11.655Z,18.43
2023-11-09T15:08:39.930Z,18.35
2023-11-09T15:11:07.876Z,18.24
2023-11-09T15:13:35.946Z,18.18
2023-11-09T15:16:05.738Z,18.03
2023-11-09T15:18:36.368Z,17.98
2023-11-09T15:21:06.648Z,17.93
2023-11-09T15:23:34.342Z,17.84
2023-11-09T15:26:01.806Z,17.83
2023-11-09T15:28:29.713Z,17.79
2023-11-09T15:30:56.757Z,17.67
2023-11-09T15:33:24.045Z,17.55
2023-11-09T15:35:51.664Z,17.73
2023-11-09T15:38:18.923Z,17.71
2023-11-09T15:41:16.174Z,17.80
2023-11-09T15:43:39.048Z,17.91
2023-11-09T15:46:13.518Z,17.92
2023-11-09T15:48:41.922Z,17.77
2023-11-09T15:51:09.915Z,17.74
2023-11-09T15:53:38.573Z,17.74
2023-11-09T15:56:06.607Z,17.78
2023-11-09T15:58:33.574Z,17.72
2023-11-09T16:01:02.481Z,17.79
2023-11-09T16:03:32.162Z,17.80
2023-11-09T16:05:59.222Z,17.85
2023-11-09T16:08:27.315Z,17.84
2023-11-09T16:10:55.312Z,17.85
2023-11-09T16:13:22.321Z,17.76
2023-11-09T16:15:49.990Z,17.77
2023-11-09T16:18:17.101Z,17.76
2023-11-09T16:20:44.129Z,17.64
2023-11-09T16:23:12.675Z,17.55
2023-11-09T16:25:45.080Z,17.51
2023-11-09T16:28:14.014Z,17.55
2023-11-09T16:30:42.099Z,17.48
2023-11-09T16:33:09.753Z,17.46
2023-11-09T16:35:37.300Z,17.23
2023-11-09T16:38:05.298Z,17.19
2023-11-09T16:40:32.453Z,17.16
2023-11-09T16:42:59.359Z,17.08
2023-11-09T16:45:26.221Z,17.07
2023-11-09T16:47:56.084Z,16.94
2023-11-09T16:50:23.136Z,16.96
2023-11-09T16:52:50.564Z,17.06
2023-11-09T16:55:17.581Z,17.11
2023-11-09T16:57:46.478Z,17.12
2023-11-09T17:00:24.718Z,17.13
2023-11-09T17:02:53.038Z,17.11
2023-11-09T17:05:20.443Z,17.10
2023-11-09T17:07:47.822Z,17.05
2023-11-09T17:10:15.577Z,17.02
2023-11-09T17:12:43.320Z,17.02
2023-11-09T17:15:12.051Z,17.02
2023-11-09T17:17:42.562Z,17.04
2023-11-09T17:20:11.794Z,17.00
2023-11-09T17:22:40.194Z,16.88
2023-11-09T17:25:09.292Z,16.85
2023-11-09T17:27:36.499Z,16.87
2023-11-09T17:30:11.193Z,16.85
2023-11-09T17:32:40.057Z,16.88
2023-11-09T17:35:08.248Z,16.85
2023-11-09T17:37:35.338Z,16.86
2023-11-09T17:40:04.667Z,16.85
2023-11-09T17:42:32.585Z,16.83
2023-11-09T17:44:59.477Z,16.80
2023-11-09T17:47:26.431Z,16.77
2023-11-09T17:49:53.441Z,16.76
2023-11-09T17:52:20.691Z,16.76
2023-11-09T17:54:47.600Z,16.73
2023-11-09T17:57:14.827Z,16.71
2023-11-09T17:59:44.751Z,16.66
2023-11-09T18:02:13.323Z,16.66
2023-11-09T18:04:41.929Z,16.64
2023-11-09T18:07:09.577Z,16.61
2023-11-09T18:09:38.680Z,16.55
2023-11-09T18:12:06.160Z,16.57
2023-11-09T18:14:33.952Z,16.56
2023-11-09T18:17:02.441Z,16.54
2023-11-09T18:19:29.361Z,16.54
2023-11-09T18:21:58.659Z,16.54
2023-11-09T18:24:25.656Z,16.54
2023-11-09T18:26:52.493Z,16.47
2023-11-09T18:29:20.363Z,16.40
2023-11-09T18:31:47.357Z,16.32
2023-11-09T18:34:14.180Z,16.23
2023-11-09T18:36:40.954Z,16.27
2023-11-09T18:39:07.736Z,16.28
2023-11-09T18:41:35.165Z,16.30
2023-11-09T18:44:02.903Z,16.30
2023-11-09T18:46:31.661Z,16.33
2023-11-09T18:48:58.522Z,16.36
2023-11-09T18:51:28.536Z,16.37
2023-11-09T18:53:55.462Z,16.38
2023-11-09T18:56:22.472Z,16.26
2023-11-09T18:58:49.339Z,16.26
2023-11-09T19:01:16.325Z,16.22
2023-11-09T19:06:14.840Z,16.24
2023-11-09T19:08:41.720Z,16.25
2023-11-09T19:11:13.377Z,16.26
2023-11-09T19:13:40.329Z,16.19
2023-11-09T19:16:07.675Z,16.17
2023-11-09T19:18:35.369Z,16.16
2023-11-09T19:23:32.210Z,16.16
2023-11-09T19:25:59.297Z,16.18
2023-11-09T19:28:28.897Z,16.19
2023-11-09T19:30:59.724Z,16.16
2023-11-09T19:33:27.272Z,16.13
2023-11-09T19:35:54.779Z,16.15
2023-11-09T19:38:21.811Z,16.16
2023-11-09T19:40:49.614Z,16.18
2023-11-09T19:43:16.800Z,16.19
2023-11-09T19:45:45.270Z,16.17
2023-11-09T19:48:13.827Z,16.18
2023-11-09T19:50:42.267Z,16.17
2023-11-09T19:53:12.268Z,16.17
2023-11-09T19:55:39.213Z,16.15
2023-11-09T19:58:06.591Z,16.07
2023-11-09T20:00:36.620Z,16.07
2023-11-09T20:03:07.534Z,16.06
2023-11-09T20:05:35.935Z,16.05
2023-11-09T20:08:03.485Z,16.02
2023-11-09T20:10:33.536Z,15.97
2023-11-09T20:13:03.221Z,16.00
2023-11-09T20:15:32.467Z,15.95
2023-11-09T20:18:01.306Z,15.89
2023-11-09T20:20:30.080Z,15.89
2023-11-09T20:23:00.306Z,15.90
2023-11-09T20:25:27.452Z,15.88
2023-11-09T20:27:57.323Z,15.80
2023-11-09T20:30:24.325Z,15.84
2023-11-09T20:32:51.606Z,15.75
2023-11-09T20:35:18.783Z,15.76
2023-11-09T20:37:45.958Z,15.80
2023-11-09T20:40:16.778Z,15.80
2023-11-09T20:42:44.565Z,15.70
2023-11-09T20:45:11.801Z,15.76
2023-11-09T20:47:38.997Z,15.68
2023-11-09T20:50:08.746Z,15.71
2023-11-09T20:52:35.631Z,15.75
2023-11-09T20:55:02.641Z,15.78
2023-11-09T20:57:30.662Z,15.78
2023-11-09T21:00:01.704Z,15.77
2023-11-09T21:02:31.611Z,15.77
2023-11-09T21:04:58.574Z,15.71
2023-11-09T21:07:25.382Z,15.73
2023-11-09T21:09:52.330Z,15.74
2023-11-09T21:12:21.607Z,15.74
2023-11-09T21:14:51.945Z,15.70
2023-11-09T21:17:18.802Z,15.76
2023-11-09T21:19:45.636Z,15.76
2023-11-09T21:22:14.467Z,15.78
2023-11-09T21:24:41.645Z,15.80
2023-11-09T21:27:15.784Z,15.80
2023-11-09T21:29:45.883Z,15.80
2023-11-09T21:32:12.875Z,15.76
2023-11-09T21:34:41.313Z,15.63
2023-11-09T21:37:09.539Z,15.62
2023-11-09T21:39:39.550Z,15.63
2023-11-09T21:42:11.953Z,15.64
2023-11-09T21:44:39.394Z,15.53
2023-11-09T21:47:06.626Z,15.60
2023-11-09T21:49:35.775Z,15.63
2023-11-09T21:52:04.526Z,15.63
2023-11-09T21:54:31.350Z,15.62
2023-11-09T21:57:02.134Z,15.62
2023-11-09T21:59:30.580Z,15.61
2023-11-09T22:01:57.768Z,15.57
2023-11-09T22:04:24.890Z,15.58
2023-11-09T22:06:54.205Z,15.60
2023-11-09T22:09:24.593Z,15.61
2023-11-09T22:11:51.972Z,15.59
2023-11-09T22:14:21.470Z,15.56
2023-11-09T22:16:48.299Z,15.49
2023-11-09T22:19:15.201Z,15.37
2023-11-09T22:21:42.064Z,15.27
2023-11-09T22:24:11.641Z,15.37
2023-11-09T22:26:40.166Z,15.34
2023-11-09T22:29:07.454Z,15.35
2023-11-09T22:31:34.423Z,15.39
2023-11-09T22:34:01.510Z,15.42
2023-11-09T22:36:28.425Z,15.46
2023-11-09T22:38:55.292Z,15.49
2023-11-09T22:41:25.169Z,15.52
2023-11-09T22:43:52.015Z,15.56
2023-11-09T22:46:19.002Z,15.56
2023-11-09T22:48:46.166Z,15.54
2023-11-09T22:51:13.208Z,15.58
2023-11-09T22:53:40.164Z,15.61
2023-11-09T22:56:07.554Z,15.61
2023-11-09T22:58:34.595Z,15.61
2023-11-09T23:01:04.995Z,15.61
2023-11-09T23:03:33.358Z,15.59
2023-11-09T23:06:01.321Z,15.59
2023-11-09T23:08:28.398Z,15.56
2023-11-09T23:10:55.265Z,15.49
2023-11-09T23:13:22.101Z,15.52
2023-11-09T23:15:48.969Z,15.45
2023-11-09T23:18:16.428Z,15.42
2023-11-09T23:20:45.197Z,15.43
2023-11-09T23:23:13.131Z,15.38
2023-11-09T23:25:40.282Z,15.36
2023-11-09T23:28:07.297Z,15.40
2023-11-09T23:30:34.270Z,15.40
2023-11-09T23:33:01.229Z,15.41
2023-11-09T23:35:29.746Z,15.42
2023-11-09T23:37:57.232Z,15.42
2023-11-09T23:40:24.114Z,15.38
2023-11-09T23:42:51.579Z,15.43
2023-11-09T23:45:19.065Z,15.41
2023-11-09T23:47:46.613Z,15.41
2023-11-09T23:50:13.722Z,15.28
2023-11-09T23:52:41.267Z,15.33
2023-11-09T23:55:08.620Z,15.37
2023-11-09T23:57:35.959Z,15.35
